sensor_id;sensor_type;location;lat;lon;timestamp;P1;durP1;ratioP1;P2;durP2;ratioP2
6997;SDS011;3539;47.982;12.238;2024-01-07T00:01:47;20.73;;;11.13;;
6997;SDS011;3539;47.982;12.238;2024-01-07T00:04:14;19.70;;;10.67;;
6997;SDS011;3539;47.982;12.238;2024-01-07T00:06:42;19.00;;;11.10;;
6997;SDS011;3539;47.982;12.238;2024-01-07T00:09:10;27.77;;;23.87;;
6997;SDS011;3539;47.982;12.238;2024-01-07T00:11:37;18.00;;;10.27;;
6997;SDS011;3539;47.982;12.238;2024-01-07T00:14:04;17.83;;;10.73;;
6997;SDS011;3539;47.982;12.238;2024-01-07T00:16:30;19.53;;;10.37;;
6997;SDS011;3539;47.982;12.238;2024-01-07T00:18:59;18.67;;;10.60;;
6997;SDS011;3539;47.982;12.238;2024-01-07T00:21:26;19.20;;;10.30;;
6997;SDS011;3539;47.982;12.238;2024-01-07T00:23:55;17.70;;;10.97;;
6997;SDS011;3539;47.982;12.238;2024-01-07T00:26:22;26.23;;;22.20;;
6997;SDS011;3539;47.982;12.238;2024-01-07T00:28:48;19.00;;;10.27;;
6997;SDS011;3539;47.982;12.238;2024-01-07T00:31:15;17.50;;;9.37;;
6997;SDS011;3539;47.982;12.238;2024-01-07T00:33:42;16.90;;;10.07;;
6997;SDS011;3539;47.982;12.238;2024-01-07T00:36:09;15.33;;;9.70;;
6997;SDS011;3539;47.982;12.238;2024-01-07T00:38:35;24.97;;;21.23;;
6997;SDS011;3539;47.982;12.238;2024-01-07T00:41:04;16.87;;;9.93;;
6997;SDS011;3539;47.982;12.238;2024-01-07T00:43:31;16.33;;;8.97;;
6997;SDS011;3539;47.982;12.238;2024-01-07T00:45:57;17.90;;;9.60;;
6997;SDS011;3539;47.982;12.238;2024-01-07T00:48:24;15.23;;;9.17;;
6997;SDS011;3539;47.982;12.238;2024-01-07T00:50:51;16.63;;;9.20;;
6997;SDS011;3539;47.982;12.238;2024-01-07T00:53:17;18.23;;;9.83;;
6997;SDS011;3539;47.982;12.238;2024-01-07T00:55:44;17.37;;;9.73;;
6997;SDS011;3539;47.982;12.238;2024-01-07T00:58:12;16.33;;;10.27;;
6997;SDS011;3539;47.982;12.238;2024-01-07T01:00:39;18.07;;;9.27;;
6997;SDS011;3539;47.982;12.238;2024-01-07T01:03:06;16.37;;;9.10;;
6997;SDS011;3539;47.982;12.238;2024-01-07T01:05:32;16.37;;;9.20;;
6997;SDS011;3539;47.982;12.238;2024-01-07T01:07:59;24.90;;;20.53;;
6997;SDS011;3539;47.982;12.238;2024-01-07T01:10:26;23.47;;;19.83;;
6997;SDS011;3539;47.982;12.238;2024-01-07T01:12:52;18.20;;;9.63;;
6997;SDS011;3539;47.982;12.238;2024-01-07T01:15:20;15.33;;;8.90;;
6997;SDS011;3539;47.982;12.238;2024-01-07T01:17:47;18.53;;;9.93;;
6997;SDS011;3539;47.982;12.238;2024-01-07T01:20:14;16.43;;;10.37;;
6997;SDS011;3539;47.982;12.238;2024-01-07T01:22:41;18.87;;;12.43;;
6997;SDS011;3539;47.982;12.238;2024-01-07T01:25:07;20.10;;;12.10;;
6997;SDS011;3539;47.982;12.238;2024-01-07T01:27:35;15.40;;;9.93;;
6997;SDS011;3539;47.982;12.238;2024-01-07T01:30:02;15.80;;;10.23;;
6997;SDS011;3539;47.982;12.238;2024-01-07T01:32:30;16.43;;;11.00;;
6997;SDS011;3539;47.982;12.238;2024-01-07T01:34:57;18.73;;;11.10;;
6997;SDS011;3539;47.982;12.238;2024-01-07T01:37:23;16.33;;;9.50;;
6997;SDS011;3539;47.982;12.238;2024-01-07T01:39:50;16.63;;;9.80;;
6997;SDS011;3539;47.982;12.238;2024-01-07T01:42:17;16.97;;;9.70;;
6997;SDS011;3539;47.982;12.238;2024-01-07T01:44:43;17.83;;;9.83;;
6997;SDS011;3539;47.982;12.238;2024-01-07T01:47:10;18.17;;;10.57;;
6997;SDS011;3539;47.982;12.238;2024-01-07T01:49:39;27.20;;;21.93;;
6997;SDS011;3539;47.982;12.238;2024-01-07T01:52:06;16.80;;;10.30;;
6997;SDS011;3539;47.982;12.238;2024-01-07T01:54:33;16.83;;;9.47;;
6997;SDS011;3539;47.982;12.238;2024-01-07T01:57:01;17.17;;;9.93;;
6997;SDS011;3539;47.982;12.238;2024-01-07T01:59:27;16.57;;;9.77;;
6997;SDS011;3539;47.982;12.238;2024-01-07T02:01:55;25.97;;;22.17;;
6997;SDS011;3539;47.982;12.238;2024-01-07T02:04:21;16.27;;;9.60;;
6997;SDS011;3539;47.982;12.238;2024-01-07T02:06:49;17.90;;;9.97;;
6997;SDS011;3539;47.982;12.238;2024-01-07T02:09:16;16.30;;;9.77;;
6997;SDS011;3539;47.982;12.238;2024-01-07T02:11:43;17.40;;;9.80;;
6997;SDS011;3539;47.982;12.238;2024-01-07T02:14:10;16.60;;;10.03;;
6997;SDS011;3539;47.982;12.238;2024-01-07T02:16:36;17.20;;;10.73;;
6997;SDS011;3539;47.982;12.238;2024-01-07T02:19:03;17.27;;;9.63;;
6997;SDS011;3539;47.982;12.238;2024-01-07T02:21:31;17.13;;;10.37;;
6997;SDS011;3539;47.982;12.238;2024-01-07T02:26:32;25.53;;;21.60;;
6997;SDS011;3539;47.982;12.238;2024-01-07T02:28:59;17.27;;;9.97;;
6997;SDS011;3539;47.982;12.238;2024-01-07T02:31:25;17.13;;;9.57;;
6997;SDS011;3539;47.982;12.238;2024-01-07T02:33:52;16.80;;;10.00;;
6997;SDS011;3539;47.982;12.238;2024-01-07T02:36:19;17.70;;;10.33;;
6997;SDS011;3539;47.982;12.238;2024-01-07T02:38:45;15.90;;;9.70;;
6997;SDS011;3539;47.982;12.238;2024-01-07T02:41:14;19.53;;;10.43;;
6997;SDS011;3539;47.982;12.238;2024-01-07T02:43:40;18.33;;;10.43;;
6997;SDS011;3539;47.982;12.238;2024-01-07T02:46:07;20.73;;;10.77;;
6997;SDS011;3539;47.982;12.238;2024-01-07T02:48:34;24.27;;;21.20;;
6997;SDS011;3539;47.982;12.238;2024-01-07T02:51:01;19.40;;;10.60;;
6997;SDS011;3539;47.982;12.238;2024-01-07T02:53:30;17.93;;;10.37;;
6997;SDS011;3539;47.982;12.238;2024-01-07T02:55:57;19.03;;;10.77;;
6997;SDS011;3539;47.982;12.238;2024-01-07T02:58:25;18.53;;;10.70;;
6997;SDS011;3539;47.982;12.238;2024-01-07T03:00:54;31.17;;;23.87;;
6997;SDS011;3539;47.982;12.238;2024-01-07T03:03:20;18.40;;;10.37;;
6997;SDS011;3539;47.982;12.238;2024-01-07T03:05:47;22.20;;;11.03;;
6997;SDS011;3539;47.982;12.238;2024-01-07T03:08:14;19.27;;;11.00;;
6997;SDS011;3539;47.982;12.238;2024-01-07T03:10:41;18.13;;;10.90;;
6997;SDS011;3539;47.982;12.238;2024-01-07T03:13:07;17.70;;;10.43;;
6997;SDS011;3539;47.982;12.238;2024-01-07T03:15:36;18.90;;;10.90;;
6997;SDS011;3539;47.982;12.238;2024-01-07T03:18:03;21.60;;;11.43;;
6997;SDS011;3539;47.982;12.238;2024-01-07T03:20:30;18.17;;;10.77;;
6997;SDS011;3539;47.982;12.238;2024-01-07T03:22:57;17.83;;;10.87;;
6997;SDS011;3539;47.982;12.238;2024-01-07T03:25:24;21.80;;;13.90;;
6997;SDS011;3539;47.982;12.238;2024-01-07T03:27:51;23.50;;;13.53;;
6997;SDS011;3539;47.982;12.238;2024-01-07T03:30:18;20.73;;;13.13;;
6997;SDS011;3539;47.982;12.238;2024-01-07T03:32:46;18.03;;;12.17;;
6997;SDS011;3539;47.982;12.238;2024-01-07T03:35:14;23.10;;;12.07;;
6997;SDS011;3539;47.982;12.238;2024-01-07T03:37:40;21.17;;;11.17;;
6997;SDS011;3539;47.982;12.238;2024-01-07T03:40:09;23.07;;;12.83;;
6997;SDS011;3539;47.982;12.238;2024-01-07T03:42:36;19.47;;;11.50;;
6997;SDS011;3539;47.982;12.238;2024-01-07T03:45:04;20.13;;;11.30;;
6997;SDS011;3539;47.982;12.238;2024-01-07T03:47:31;19.60;;;10.63;;
6997;SDS011;3539;47.982;12.238;2024-01-07T03:49:59;18.63;;;9.33;;
6997;SDS011;3539;47.982;12.238;2024-01-07T03:52:26;18.43;;;9.97;;
6997;SDS011;3539;47.982;12.238;2024-01-07T03:54:53;21.40;;;11.03;;
6997;SDS011;3539;47.982;12.238;2024-01-07T03:57:20;19.97;;;10.30;;
6997;SDS011;3539;47.982;12.238;2024-01-07T03:59:47;18.33;;;10.03;;
6997;SDS011;3539;47.982;12.238;2024-01-07T04:02:14;16.57;;;10.33;;
6997;SDS011;3539;47.982;12.238;2024-01-07T04:04:41;21.20;;;10.97;;
6997;SDS011;3539;47.982;12.238;2024-01-07T04:07:10;18.33;;;10.83;;
6997;SDS011;3539;47.982;12.238;2024-01-07T04:09:36;28.43;;;23.13;;
6997;SDS011;3539;47.982;12.238;2024-01-07T04:12:03;21.67;;;10.77;;
6997;SDS011;3539;47.982;12.238;2024-01-07T04:14:31;22.53;;;11.03;;
6997;SDS011;3539;47.982;12.238;2024-01-07T04:16:58;17.77;;;10.40;;
6997;SDS011;3539;47.982;12.238;2024-01-07T04:19:25;19.93;;;11.07;;
6997;SDS011;3539;47.982;12.238;2024-01-07T04:21:52;21.63;;;11.27;;
6997;SDS011;3539;47.982;12.238;2024-01-07T04:24:20;27.40;;;22.23;;
6997;SDS011;3539;47.982;12.238;2024-01-07T04:26:47;21.57;;;10.43;;
6997;SDS011;3539;47.982;12.238;2024-01-07T04:29:13;16.80;;;9.87;;
6997;SDS011;3539;47.982;12.238;2024-01-07T04:31:40;20.20;;;10.23;;
6997;SDS011;3539;47.982;12.238;2024-01-07T04:34:07;19.77;;;10.70;;
6997;SDS011;3539;47.982;12.238;2024-01-07T04:36:33;17.80;;;10.07;;
6997;SDS011;3539;47.982;12.238;2024-01-07T04:39:00;18.73;;;9.93;;
6997;SDS011;3539;47.982;12.238;2024-01-07T04:41:28;20.63;;;11.03;;
6997;SDS011;3539;47.982;12.238;2024-01-07T04:43:55;19.17;;;10.37;;
6997;SDS011;3539;47.982;12.238;2024-01-07T04:46:22;16.77;;;9.80;;
6997;SDS011;3539;47.982;12.238;2024-01-07T04:48:49;19.57;;;10.10;;
6997;SDS011;3539;47.982;12.238;2024-01-07T04:51:15;25.83;;;21.03;;
6997;SDS011;3539;47.982;12.238;2024-01-07T04:53:42;17.83;;;9.10;;
6997;SDS011;3539;47.982;12.238;2024-01-07T04:56:09;17.47;;;9.60;;
6997;SDS011;3539;47.982;12.238;2024-01-07T04:58:37;20.40;;;10.80;;
6997;SDS011;3539;47.982;12.238;2024-01-07T05:01:04;19.37;;;9.73;;
6997;SDS011;3539;47.982;12.238;2024-01-07T05:03:31;29.27;;;22.87;;
6997;SDS011;3539;47.982;12.238;2024-01-07T05:05:59;16.27;;;9.87;;
6997;SDS011;3539;47.982;12.238;2024-01-07T05:08:27;19.40;;;10.70;;
6997;SDS011;3539;47.982;12.238;2024-01-07T05:10:54;19.10;;;10.63;;
6997;SDS011;3539;47.982;12.238;2024-01-07T05:13:21;19.00;;;10.30;;
6997;SDS011;3539;47.982;12.238;2024-01-07T05:15:49;16.60;;;9.40;;
6997;SDS011;3539;47.982;12.238;2024-01-07T05:18:18;17.40;;;9.37;;
6997;SDS011;3539;47.982;12.238;2024-01-07T05:20:46;18.40;;;11.13;;
6997;SDS011;3539;47.982;12.238;2024-01-07T05:23:13;24.67;;;19.03;;
6997;SDS011;3539;47.982;12.238;2024-01-07T05:25:39;21.97;;;17.23;;
6997;SDS011;3539;47.982;12.238;2024-01-07T05:28:08;14.93;;;8.67;;
6997;SDS011;3539;47.982;12.238;2024-01-07T05:30:34;15.93;;;8.80;;
6997;SDS011;3539;47.982;12.238;2024-01-07T05:33:03;15.63;;;9.37;;
6997;SDS011;3539;47.982;12.238;2024-01-07T05:35:29;22.70;;;18.83;;
6997;SDS011;3539;47.982;12.238;2024-01-07T05:37:56;18.43;;;9.77;;
6997;SDS011;3539;47.982;12.238;2024-01-07T05:40:23;17.43;;;10.10;;
6997;SDS011;3539;47.982;12.238;2024-01-07T05:42:50;16.77;;;9.70;;
6997;SDS011;3539;47.982;12.238;2024-01-07T05:45:16;17.30;;;10.20;;
6997;SDS011;3539;47.982;12.238;2024-01-07T05:47:43;84.50;;;55.37;;
6997;SDS011;3539;47.982;12.238;2024-01-07T05:50:11;106.93;;;38.70;;
6997;SDS011;3539;47.982;12.238;2024-01-07T05:52:40;61.33;;;23.83;;
6997;SDS011;3539;47.982;12.238;2024-01-07T05:55:07;38.73;;;17.03;;
6997;SDS011;3539;47.982;12.238;2024-01-07T05:57:34;24.37;;;11.90;;
6997;SDS011;3539;47.982;12.238;2024-01-07T06:00:01;32.07;;;13.23;;
6997;SDS011;3539;47.982;12.238;2024-01-07T06:02:28;39.03;;;15.73;;
6997;SDS011;3539;47.982;12.238;2024-01-07T06:04:56;48.73;;;19.00;;
6997;SDS011;3539;47.982;12.238;2024-01-07T06:07:25;50.63;;;17.03;;
6997;SDS011;3539;47.982;12.238;2024-01-07T06:09:51;35.97;;;15.80;;
6997;SDS011;3539;47.982;12.238;2024-01-07T06:12:18;39.53;;;17.07;;
6997;SDS011;3539;47.982;12.238;2024-01-07T06:14:45;54.17;;;34.70;;
6997;SDS011;3539;47.982;12.238;2024-01-07T06:17:11;56.93;;;35.97;;
6997;SDS011;3539;47.982;12.238;2024-01-07T06:19:38;43.60;;;31.67;;
6997;SDS011;3539;47.982;12.238;2024-01-07T06:22:05;24.90;;;12.40;;
6997;SDS011;3539;47.982;12.238;2024-01-07T06:24:33;25.97;;;13.57;;
6997;SDS011;3539;47.982;12.238;2024-01-07T06:26:59;23.60;;;12.10;;
6997;SDS011;3539;47.982;12.238;2024-01-07T06:29:29;24.67;;;12.10;;
6997;SDS011;3539;47.982;12.238;2024-01-07T06:31:55;25.07;;;11.23;;
6997;SDS011;3539;47.982;12.238;2024-01-07T06:34:22;20.17;;;10.40;;
6997;SDS011;3539;47.982;12.238;2024-01-07T06:36:49;18.37;;;9.50;;
6997;SDS011;3539;47.982;12.238;2024-01-07T06:39:16;15.37;;;8.63;;
6997;SDS011;3539;47.982;12.238;2024-01-07T06:41:44;25.43;;;19.10;;
6997;SDS011;3539;47.982;12.238;2024-01-07T06:44:11;23.33;;;18.03;;
6997;SDS011;3539;47.982;12.238;2024-01-07T06:46:37;12.97;;;7.80;;
6997;SDS011;3539;47.982;12.238;2024-01-07T06:49:04;13.07;;;7.87;;
6997;SDS011;3539;47.982;12.238;2024-01-07T06:51:32;19.57;;;16.37;;
6997;SDS011;3539;47.982;12.238;2024-01-07T06:53:59;12.27;;;7.90;;
6997;SDS011;3539;47.982;12.238;2024-01-07T06:56:25;20.03;;;16.23;;
6997;SDS011;3539;47.982;12.238;2024-01-07T06:58:53;18.90;;;16.57;;
6997;SDS011;3539;47.982;12.238;2024-01-07T07:01:20;11.30;;;7.73;;
6997;SDS011;3539;47.982;12.238;2024-01-07T07:03:48;18.23;;;15.77;;
6997;SDS011;3539;47.982;12.238;2024-01-07T07:06:15;19.07;;;15.67;;
6997;SDS011;3539;47.982;12.238;2024-01-07T07:08:42;11.67;;;7.73;;
6997;SDS011;3539;47.982;12.238;2024-01-07T07:11:09;12.63;;;7.17;;
6997;SDS011;3539;47.982;12.238;2024-01-07T07:13:35;14.13;;;8.40;;
6997;SDS011;3539;47.982;12.238;2024-01-07T07:16:05;13.73;;;8.40;;
6997;SDS011;3539;47.982;12.238;2024-01-07T07:18:32;20.03;;;16.33;;
6997;SDS011;3539;47.982;12.238;2024-01-07T07:20:59;20.67;;;17.70;;
6997;SDS011;3539;47.982;12.238;2024-01-07T07:23:26;12.50;;;8.00;;
6997;SDS011;3539;47.982;12.238;2024-01-07T07:25:52;13.83;;;7.73;;
6997;SDS011;3539;47.982;12.238;2024-01-07T07:28:19;26.03;;;19.30;;
6997;SDS011;3539;47.982;12.238;2024-01-07T07:30:47;20.03;;;17.70;;
6997;SDS011;3539;47.982;12.238;2024-01-07T07:33:15;13.60;;;8.03;;
6997;SDS011;3539;47.982;12.238;2024-01-07T07:35:42;13.03;;;7.73;;
6997;SDS011;3539;47.982;12.238;2024-01-07T07:38:09;8.80;;;6.43;;
6997;SDS011;3539;47.982;12.238;2024-01-07T07:40:36;9.93;;;6.57;;
6997;SDS011;3539;47.982;12.238;2024-01-07T07:43:02;11.33;;;6.83;;
6997;SDS011;3539;47.982;12.238;2024-01-07T07:45:29;9.77;;;6.37;;
6997;SDS011;3539;47.982;12.238;2024-01-07T07:47:56;15.70;;;13.73;;
6997;SDS011;3539;47.982;12.238;2024-01-07T07:50:24;10.63;;;7.23;;
6997;SDS011;3539;47.982;12.238;2024-01-07T07:52:51;17.43;;;14.20;;
6997;SDS011;3539;47.982;12.238;2024-01-07T07:55:18;15.10;;;13.50;;
6997;SDS011;3539;47.982;12.238;2024-01-07T07:57:45;15.80;;;13.70;;
6997;SDS011;3539;47.982;12.238;2024-01-07T08:00:13;11.90;;;7.50;;
6997;SDS011;3539;47.982;12.238;2024-01-07T08:02:40;9.83;;;7.00;;
6997;SDS011;3539;47.982;12.238;2024-01-07T08:05:07;9.83;;;6.73;;
6997;SDS011;3539;47.982;12.238;2024-01-07T08:07:35;9.13;;;6.27;;
6997;SDS011;3539;47.982;12.238;2024-01-07T08:10:02;9.80;;;6.73;;
6997;SDS011;3539;47.982;12.238;2024-01-07T08:12:29;13.63;;;12.23;;
6997;SDS011;3539;47.982;12.238;2024-01-07T08:14:56;9.30;;;7.23;;
6997;SDS011;3539;47.982;12.238;2024-01-07T08:17:23;10.13;;;6.60;;
6997;SDS011;3539;47.982;12.238;2024-01-07T08:19:50;9.40;;;6.53;;
6997;SDS011;3539;47.982;12.238;2024-01-07T08:22:17;8.57;;;6.07;;
6997;SDS011;3539;47.982;12.238;2024-01-07T08:24:46;12.57;;;11.33;;
6997;SDS011;3539;47.982;12.238;2024-01-07T08:27:13;9.63;;;6.67;;
6997;SDS011;3539;47.982;12.238;2024-01-07T08:29:42;8.23;;;6.13;;
6997;SDS011;3539;47.982;12.238;2024-01-07T08:32:09;13.67;;;12.27;;
6997;SDS011;3539;47.982;12.238;2024-01-07T08:34:37;8.63;;;5.83;;
6997;SDS011;3539;47.982;12.238;2024-01-07T08:37:04;11.03;;;7.70;;
6997;SDS011;3539;47.982;12.238;2024-01-07T08:39:31;7.03;;;6.07;;
6997;SDS011;3539;47.982;12.238;2024-01-07T08:41:59;13.37;;;11.97;;
6997;SDS011;3539;47.982;12.238;2024-01-07T08:44:25;9.17;;;6.27;;
6997;SDS011;3539;47.982;12.238;2024-01-07T08:46:53;13.53;;;12.23;;
6997;SDS011;3539;47.982;12.238;2024-01-07T08:49:19;13.60;;;12.27;;
6997;SDS011;3539;47.982;12.238;2024-01-07T08:51:46;9.40;;;6.53;;
6997;SDS011;3539;47.982;12.238;2024-01-07T08:54:13;8.33;;;6.23;;
6997;SDS011;3539;47.982;12.238;2024-01-07T08:56:39;9.13;;;6.70;;
6997;SDS011;3539;47.982;12.238;2024-01-07T08:59:08;9.50;;;6.93;;
6997;SDS011;3539;47.982;12.238;2024-01-07T09:01:35;9.43;;;6.80;;
6997;SDS011;3539;47.982;12.238;2024-01-07T09:04:02;10.87;;;7.10;;
6997;SDS011;3539;47.982;12.238;2024-01-07T09:06:29;11.43;;;7.67;;
6997;SDS011;3539;47.982;12.238;2024-01-07T09:08:57;10.27;;;7.27;;
6997;SDS011;3539;47.982;12.238;2024-01-07T09:11:24;13.07;;;8.07;;
6997;SDS011;3539;47.982;12.238;2024-01-07T09:13:50;18.70;;;9.53;;
6997;SDS011;3539;47.982;12.238;2024-01-07T09:16:18;35.73;;;15.40;;
6997;SDS011;3539;47.982;12.238;2024-01-07T09:18:45;9.83;;;7.30;;
6997;SDS011;3539;47.982;12.238;2024-01-07T09:21:12;14.80;;;9.37;;
6997;SDS011;3539;47.982;12.238;2024-01-07T09:23:40;11.10;;;7.87;;
6997;SDS011;3539;47.982;12.238;2024-01-07T09:26:07;19.50;;;17.40;;
6997;SDS011;3539;47.982;12.238;2024-01-07T09:28:34;11.57;;;8.47;;
6997;SDS011;3539;47.982;12.238;2024-01-07T09:31:01;10.17;;;7.20;;
6997;SDS011;3539;47.982;12.238;2024-01-07T09:33:29;9.27;;;7.07;;
6997;SDS011;3539;47.982;12.238;2024-01-07T09:35:56;9.70;;;7.50;;
6997;SDS011;3539;47.982;12.238;2024-01-07T09:38:22;10.50;;;7.70;;
6997;SDS011;3539;47.982;12.238;2024-01-07T09:40:50;8.50;;;6.93;;
6997;SDS011;3539;47.982;12.238;2024-01-07T09:43:18;12.73;;;11.53;;
6997;SDS011;3539;47.982;12.238;2024-01-07T09:45:45;12.97;;;11.67;;
6997;SDS011;3539;47.982;12.238;2024-01-07T09:48:12;9.47;;;6.60;;
6997;SDS011;3539;47.982;12.238;2024-01-07T09:50:41;10.60;;;7.07;;
6997;SDS011;3539;47.982;12.238;2024-01-07T09:53:08;12.40;;;11.20;;
6997;SDS011;3539;47.982;12.238;2024-01-07T09:55:40;8.93;;;6.80;;
6997;SDS011;3539;47.982;12.238;2024-01-07T09:58:14;9.13;;;6.70;;
6997;SDS011;3539;47.982;12.238;2024-01-07T10:00:41;8.30;;;5.97;;
6997;SDS011;3539;47.982;12.238;2024-01-07T10:03:08;8.73;;;6.33;;
6997;SDS011;3539;47.982;12.238;2024-01-07T10:05:35;7.93;;;5.83;;
6997;SDS011;3539;47.982;12.238;2024-01-07T10:08:03;8.10;;;6.23;;
6997;SDS011;3539;47.982;12.238;2024-01-07T10:10:31;11.07;;;10.07;;
6997;SDS011;3539;47.982;12.238;2024-01-07T10:12:58;11.07;;;10.07;;
6997;SDS011;3539;47.982;12.238;2024-01-07T10:15:26;12.00;;;10.90;;
6997;SDS011;3539;47.982;12.238;2024-01-07T10:17:54;17.60;;;10.27;;
6997;SDS011;3539;47.982;12.238;2024-01-07T10:20:21;11.67;;;10.63;;
6997;SDS011;3539;47.982;12.238;2024-01-07T10:22:49;8.53;;;6.20;;
6997;SDS011;3539;47.982;12.238;2024-01-07T10:25:18;8.73;;;6.17;;
6997;SDS011;3539;47.982;12.238;2024-01-07T10:27:45;8.00;;;6.17;;
6997;SDS011;3539;47.982;12.238;2024-01-07T10:30:12;10.17;;;9.27;;
6997;SDS011;3539;47.982;12.238;2024-01-07T10:32:40;8.23;;;6.40;;
6997;SDS011;3539;47.982;12.238;2024-01-07T10:35:10;7.83;;;5.73;;
6997;SDS011;3539;47.982;12.238;2024-01-07T10:37:39;8.03;;;5.50;;
6997;SDS011;3539;47.982;12.238;2024-01-07T10:40:06;8.43;;;6.17;;
6997;SDS011;3539;47.982;12.238;2024-01-07T10:42:35;9.80;;;8.90;;
6997;SDS011;3539;47.982;12.238;2024-01-07T10:45:03;8.23;;;5.73;;
6997;SDS011;3539;47.982;12.238;2024-01-07T10:47:31;10.00;;;9.10;;
6997;SDS011;3539;47.982;12.238;2024-01-07T10:49:58;9.53;;;8.73;;
6997;SDS011;3539;47.982;12.238;2024-01-07T10:52:26;8.23;;;5.90;;
6997;SDS011;3539;47.982;12.238;2024-01-07T10:54:53;10.63;;;9.67;;
6997;SDS011;3539;47.982;12.238;2024-01-07T10:57:24;8.40;;;6.30;;
6997;SDS011;3539;47.982;12.238;2024-01-07T10:59:58;10.57;;;6.50;;
6997;SDS011;3539;47.982;12.238;2024-01-07T11:02:25;7.90;;;6.03;;
6997;SDS011;3539;47.982;12.238;2024-01-07T11:04:56;8.53;;;6.13;;
6997;SDS011;3539;47.982;12.238;2024-01-07T11:07:28;10.20;;;9.30;;
6997;SDS011;3539;47.982;12.238;2024-01-07T11:10:04;7.87;;;6.03;;
6997;SDS011;3539;47.982;12.238;2024-01-07T11:12:50;8.87;;;6.10;;
6997;SDS011;3539;47.982;12.238;2024-01-07T11:18:46;10.97;;;9.97;;
6997;SDS011;3539;47.982;12.238;2024-01-07T11:21:20;10.80;;;9.77;;
6997;SDS011;3539;47.982;12.238;2024-01-07T11:23:49;10.00;;;9.10;;
6997;SDS011;3539;47.982;12.238;2024-01-07T11:26:18;9.80;;;8.90;;
6997;SDS011;3539;47.982;12.238;2024-01-07T11:28:46;7.23;;;5.60;;
6997;SDS011;3539;47.982;12.238;2024-01-07T11:31:14;6.37;;;5.07;;
6997;SDS011;3539;47.982;12.238;2024-01-07T11:33:42;7.77;;;5.47;;
6997;SDS011;3539;47.982;12.238;2024-01-07T11:36:12;21.80;;;12.60;;
6997;SDS011;3539;47.982;12.238;2024-01-07T11:38:41;24.93;;;12.73;;
6997;SDS011;3539;47.982;12.238;2024-01-07T11:41:09;5.90;;;5.10;;
6997;SDS011;3539;47.982;12.238;2024-01-07T11:43:36;15.73;;;14.07;;
6997;SDS011;3539;47.982;12.238;2024-01-07T11:46:03;10.40;;;9.40;;
6997;SDS011;3539;47.982;12.238;2024-01-07T11:48:30;8.80;;;8.10;;
6997;SDS011;3539;47.982;12.238;2024-01-07T11:50:56;6.90;;;5.23;;
6997;SDS011;3539;47.982;12.238;2024-01-07T11:53:25;8.57;;;5.43;;
6997;SDS011;3539;47.982;12.238;2024-01-07T11:55:52;6.90;;;5.33;;
6997;SDS011;3539;47.982;12.238;2024-01-07T11:58:18;7.77;;;5.50;;
6997;SDS011;3539;47.982;12.238;2024-01-07T12:00:45;6.33;;;4.73;;
6997;SDS011;3539;47.982;12.238;2024-01-07T12:06:34;6.67;;;5.20;;
6997;SDS011;3539;47.982;12.238;2024-01-07T12:09:02;8.67;;;7.87;;
6997;SDS011;3539;47.982;12.238;2024-01-07T12:11:29;7.93;;;5.33;;
6997;SDS011;3539;47.982;12.238;2024-01-07T12:13:57;9.00;;;8.20;;
6997;SDS011;3539;47.982;12.238;2024-01-07T12:16:25;6.77;;;5.30;;
6997;SDS011;3539;47.982;12.238;2024-01-07T12:18:52;9.33;;;8.50;;
6997;SDS011;3539;47.982;12.238;2024-01-07T12:21:19;8.73;;;5.67;;
6997;SDS011;3539;47.982;12.238;2024-01-07T12:23:47;7.17;;;5.60;;
6997;SDS011;3539;47.982;12.238;2024-01-07T12:26:17;9.03;;;6.33;;
6997;SDS011;3539;47.982;12.238;2024-01-07T12:28:51;6.90;;;5.00;;
6997;SDS011;3539;47.982;12.238;2024-01-07T12:31:18;8.83;;;8.03;;
6997;SDS011;3539;47.982;12.238;2024-01-07T12:33:46;8.57;;;7.87;;
6997;SDS011;3539;47.982;12.238;2024-01-07T12:36:14;9.20;;;8.33;;
6997;SDS011;3539;47.982;12.238;2024-01-07T12:38:41;7.37;;;5.23;;
6997;SDS011;3539;47.982;12.238;2024-01-07T12:41:08;7.63;;;5.50;;
6997;SDS011;3539;47.982;12.238;2024-01-07T12:43:37;6.77;;;5.50;;
6997;SDS011;3539;47.982;12.238;2024-01-07T12:46:04;6.97;;;5.47;;
6997;SDS011;3539;47.982;12.238;2024-01-07T12:48:32;9.27;;;8.37;;
6997;SDS011;3539;47.982;12.238;2024-01-07T12:50:59;6.13;;;5.00;;
6997;SDS011;3539;47.982;12.238;2024-01-07T12:53:27;6.77;;;4.77;;
6997;SDS011;3539;47.982;12.238;2024-01-07T12:55:55;6.43;;;5.40;;
6997;SDS011;3539;47.982;12.238;2024-01-07T12:58:22;8.67;;;7.87;;
6997;SDS011;3539;47.982;12.238;2024-01-07T13:00:50;9.43;;;8.53;;
6997;SDS011;3539;47.982;12.238;2024-01-07T13:03:17;7.60;;;5.10;;
6997;SDS011;3539;47.982;12.238;2024-01-07T13:05:44;7.67;;;5.50;;
6997;SDS011;3539;47.982;12.238;2024-01-07T13:08:13;9.03;;;8.23;;
6997;SDS011;3539;47.982;12.238;2024-01-07T13:10:40;9.57;;;8.77;;
6997;SDS011;3539;47.982;12.238;2024-01-07T13:13:07;7.87;;;5.93;;
6997;SDS011;3539;47.982;12.238;2024-01-07T13:15:35;7.33;;;5.53;;
6997;SDS011;3539;47.982;12.238;2024-01-07T13:18:03;7.20;;;5.40;;
6997;SDS011;3539;47.982;12.238;2024-01-07T13:20:30;6.00;;;4.90;;
6997;SDS011;3539;47.982;12.238;2024-01-07T13:22:57;9.17;;;8.37;;
6997;SDS011;3539;47.982;12.238;2024-01-07T13:25:25;7.27;;;4.87;;
6997;SDS011;3539;47.982;12.238;2024-01-07T13:27:53;6.17;;;4.83;;
6997;SDS011;3539;47.982;12.238;2024-01-07T13:30:20;9.07;;;8.27;;
6997;SDS011;3539;47.982;12.238;2024-01-07T13:32:47;7.60;;;5.27;;
6997;SDS011;3539;47.982;12.238;2024-01-07T13:35:16;6.00;;;4.77;;
6997;SDS011;3539;47.982;12.238;2024-01-07T13:37:43;7.37;;;4.93;;
6997;SDS011;3539;47.982;12.238;2024-01-07T13:40:12;6.90;;;4.87;;
6997;SDS011;3539;47.982;12.238;2024-01-07T13:42:39;8.90;;;8.10;;
6997;SDS011;3539;47.982;12.238;2024-01-07T13:45:06;6.50;;;5.07;;
6997;SDS011;3539;47.982;12.238;2024-01-07T13:47:33;6.53;;;5.10;;
6997;SDS011;3539;47.982;12.238;2024-01-07T13:50:00;8.53;;;7.73;;
6997;SDS011;3539;47.982;12.238;2024-01-07T13:52:30;8.43;;;7.70;;
6997;SDS011;3539;47.982;12.238;2024-01-07T13:54:57;8.63;;;7.87;;
6997;SDS011;3539;47.982;12.238;2024-01-07T13:57:23;6.23;;;4.53;;
6997;SDS011;3539;47.982;12.238;2024-01-07T13:59:50;6.30;;;5.00;;
6997;SDS011;3539;47.982;12.238;2024-01-07T14:02:17;6.03;;;4.90;;
6997;SDS011;3539;47.982;12.238;2024-01-07T14:04:45;7.40;;;5.37;;
6997;SDS011;3539;47.982;12.238;2024-01-07T14:07:13;5.40;;;4.77;;
6997;SDS011;3539;47.982;12.238;2024-01-07T14:09:41;6.57;;;4.90;;
6997;SDS011;3539;47.982;12.238;2024-01-07T14:12:08;5.60;;;4.30;;
6997;SDS011;3539;47.982;12.238;2024-01-07T14:14:35;6.37;;;4.97;;
6997;SDS011;3539;47.982;12.238;2024-01-07T14:17:02;6.53;;;4.97;;
6997;SDS011;3539;47.982;12.238;2024-01-07T14:19:29;6.70;;;4.80;;
6997;SDS011;3539;47.982;12.238;2024-01-07T14:21:56;6.77;;;5.30;;
6997;SDS011;3539;47.982;12.238;2024-01-07T14:24:23;5.97;;;4.97;;
6997;SDS011;3539;47.982;12.238;2024-01-07T14:26:51;6.80;;;4.70;;
6997;SDS011;3539;47.982;12.238;2024-01-07T14:29:18;6.13;;;4.63;;
6997;SDS011;3539;47.982;12.238;2024-01-07T14:31:46;6.73;;;4.60;;
6997;SDS011;3539;47.982;12.238;2024-01-07T14:34:13;6.93;;;6.33;;
6997;SDS011;3539;47.982;12.238;2024-01-07T14:36:40;5.17;;;3.80;;
6997;SDS011;3539;47.982;12.238;2024-01-07T14:39:08;6.30;;;5.80;;
6997;SDS011;3539;47.982;12.238;2024-01-07T14:41:38;7.03;;;6.43;;
6997;SDS011;3539;47.982;12.238;2024-01-07T14:44:06;4.90;;;4.10;;
6997;SDS011;3539;47.982;12.238;2024-01-07T14:46:33;5.63;;;3.93;;
6997;SDS011;3539;47.982;12.238;2024-01-07T14:49:00;6.00;;;3.87;;
6997;SDS011;3539;47.982;12.238;2024-01-07T14:51:27;6.00;;;4.00;;
6997;SDS011;3539;47.982;12.238;2024-01-07T14:53:55;10.17;;;9.17;;
6997;SDS011;3539;47.982;12.238;2024-01-07T14:56:22;6.70;;;4.13;;
6997;SDS011;3539;47.982;12.238;2024-01-07T14:58:49;41.27;;;19.47;;